Time;durP1;ratioP1;P1;durP2;ratioP2;P2;SDS_P1;SDS_P2;PMS_P1;PMS_P2;Temp;Humidity;BMP_temperature;BMP_pressure;BME280_temperature;BME280_humidity;BME280_pressure;Samples;Min_cycle;Max_cycle;Signal;HPM_P1;HPM_P2
2023/06/11 00:00:41;;;;;;;1.25;1.15;;;25.40;55.70;;;;;;5056621;28;20128;-68
2023/06/11 00:03:08;;;;;;;1.20;1.20;;;25.40;55.70;;;;;;5056724;28;20088;-68
2023/06/11 00:05:36;;;;;;;1.20;1.20;;;25.40;55.70;;;;;;5056135;28;20497;-68
2023/06/11 00:08:04;;;;;;;1.45;1.35;;;25.40;55.60;;;;;;5056402;28;20067;-68
2023/06/11 00:10:31;;;;;;;1.23;1.10;;;25.40;55.60;;;;;;5055586;28;20103;-68
2023/06/11 00:12:58;;;;;;;1.17;1.17;;;25.40;55.60;;;;;;5055197;28;20068;-68
2023/06/11 00:15:26;;;;;;;0.95;0.95;;;25.40;55.60;;;;;;5056217;28;20083;-68
2023/06/11 00:17:53;;;;;;;1.02;1.02;;;25.40;55.60;;;;;;5056692;28;20045;-68
2023/06/11 00:20:20;;;;;;;1.05;1.05;;;25.40;55.60;;;;;;5056171;28;20067;-68
2023/06/11 00:22:48;;;;;;;1.02;0.98;;;25.40;55.60;;;;;;5055219;28;20049;-68
2023/06/11 00:25:15;;;;;;;1.00;1.00;;;25.40;55.60;;;;;;5055614;28;20095;-68
2023/06/11 00:27:42;;;;;;;1.10;1.10;;;25.40;55.50;;;;;;5056631;28;20401;-68
2023/06/11 00:30:11;;;;;;;1.30;1.25;;;25.40;55.50;;;;;;5056234;28;20102;-68
2023/06/11 00:32:38;;;;;;;0.90;0.90;;;25.40;55.50;;;;;;5056351;28;20123;-68
2023/06/11 00:35:08;;;;;;;1.35;1.25;;;25.40;55.50;;;;;;5054630;28;20519;-68
2023/06/11 00:37:37;;;;;;;0.95;0.95;;;25.40;55.50;;;;;;5055895;28;20493;-68
2023/06/11 00:40:04;;;;;;;0.90;0.90;;;25.40;55.50;;;;;;5055104;28;20049;-68
2023/06/11 00:42:35;;;;;;;1.17;1.17;;;25.40;55.50;;;;;;5056315;28;20384;-68
2023/06/11 00:45:03;;;;;;;;;;;25.40;55.50;;;;;;5056457;28;20056;-68
2023/06/11 00:47:32;;;;;;;0.88;0.88;;;25.40;55.60;;;;;;5055865;28;19967;-69
2023/06/11 00:50:01;;;;;;;0.80;0.80;;;25.40;55.60;;;;;;5056072;28;20128;-68
2023/06/11 00:52:28;;;;;;;1.25;1.25;;;25.40;55.60;;;;;;5054750;28;20049;-68
2023/06/11 00:54:56;;;;;;;0.98;0.98;;;25.40;55.60;;;;;;5056050;28;20041;-68
2023/06/11 00:57:25;;;;;;;1.48;1.38;;;25.40;55.60;;;;;;5055461;28;20079;-68
2023/06/11 00:59:54;;;;;;;0.80;0.80;;;25.40;55.60;;;;;;5055374;28;20044;-68
2023/06/11 01:02:33;;;;;;;1.15;1.10;;;25.40;55.60;;;;;;5055463;28;20474;-68
2023/06/11 01:05:03;;;;;;;1.30;1.25;;;25.40;55.60;;;;;;5055041;28;20045;-68
2023/06/11 01:07:36;;;;;;;1.30;1.23;;;25.30;55.60;;;;;;5055141;28;20128;-68
2023/06/11 01:10:03;;;;;;;1.10;1.10;;;25.40;55.70;;;;;;5054372;28;20151;-68
2023/06/11 01:12:31;;;;;;;1.00;1.00;;;25.30;55.60;;;;;;5054574;28;20470;-68
2023/06/11 01:14:59;;;;;;;1.42;1.33;;;25.30;55.60;;;;;;5055397;28;20501;-68
2023/06/11 01:17:46;;;;;;;1.48;1.38;;;25.30;55.60;;;;;;5055220;28;20041;-68
2023/06/11 01:20:25;;;;;;;0.95;0.95;;;25.30;55.60;;;;;;5054631;28;20478;-68
2023/06/11 01:23:25;;;;;;;1.10;1.10;;;25.30;55.60;;;;;;5055052;28;20057;-68
2023/06/11 01:26:32;;;;;;;0.90;0.90;;;25.30;55.60;;;;;;5054930;28;20049;-68
2023/06/11 01:29:01;;;;;;;1.10;1.10;;;25.30;55.70;;;;;;5054006;28;20045;-68
2023/06/11 01:31:37;;;;;;;0.98;0.98;;;25.30;55.70;;;;;;5055068;28;20101;-68
2023/06/11 01:34:05;;;;;;;1.17;1.17;;;25.30;55.70;;;;;;5055094;28;20049;-68
2023/06/11 01:36:36;;;;;;;1.67;0.90;;;25.30;55.70;;;;;;5054546;28;20052;-68
2023/06/11 01:39:04;;;;;;;0.98;0.98;;;25.30;55.70;;;;;;5054541;28;20533;-68
2023/06/11 01:41:31;;;;;;;1.30;1.20;;;25.30;55.70;;;;;;5054839;28;20080;-68
2023/06/11 01:43:58;;;;;;;1.30;1.30;;;25.30;55.70;;;;;;5054563;28;20513;-68
2023/06/11 01:46:26;;;;;;;0.98;0.98;;;25.30;55.80;;;;;;5054804;28;20501;-68
2023/06/11 01:48:53;;;;;;;1.10;1.10;;;25.30;55.80;;;;;;5053510;28;20049;-68
2023/06/11 01:51:21;;;;;;;0.95;0.88;;;25.30;55.80;;;;;;5054516;28;20045;-68
2023/06/11 01:53:49;;;;;;;0.95;0.95;;;25.30;55.80;;;;;;5054702;28;20060;-68
2023/06/11 01:56:16;;;;;;;0.95;0.95;;;25.30;55.70;;;;;;5054448;28;20048;-68
2023/06/11 01:58:45;;;;;;;0.90;0.90;;;25.30;55.80;;;;;;5054234;28;20037;-69
2023/06/11 02:01:12;;;;;;;0.80;0.80;;;25.20;55.70;;;;;;5054176;28;20044;-68
2023/06/11 02:03:40;;;;;;;1.15;1.15;;;25.30;55.80;;;;;;5054468;28;20470;-68
2023/06/11 02:06:09;;;;;;;0.93;0.93;;;25.20;55.70;;;;;;5054318;28;20049;-68
2023/06/11 02:08:36;;;;;;;1.17;1.17;;;25.30;55.80;;;;;;5053705;28;20056;-68
2023/06/11 02:11:03;;;;;;;1.30;1.20;;;25.20;55.70;;;;;;5053198;28;20053;-68
2023/06/11 02:13:31;;;;;;;0.93;0.93;;;25.20;55.70;;;;;;5054517;28;20048;-68
2023/06/11 02:15:58;;;;;;;1.23;1.20;;;25.30;55.80;;;;;;5054174;28;20045;-68
2023/06/11 02:18:26;;;;;;;0.68;0.68;;;25.20;55.70;;;;;;5053840;28;20048;-68
2023/06/11 02:20:53;;;;;;;1.10;1.10;;;25.20;55.70;;;;;;5054034;28;20077;-68
2023/06/11 02:23:20;;;;;;;1.13;1.13;;;25.30;55.80;;;;;;5054320;28;20045;-68
2023/06/11 02:25:47;;;;;;;0.65;0.65;;;25.30;55.80;;;;;;5053420;28;20060;-69
2023/06/11 02:28:15;;;;;;;1.17;1.17;;;25.30;55.70;;;;;;5054437;28;20045;-68
2023/06/11 02:30:42;;;;;;;0.88;0.88;;;25.30;55.70;;;;;;5053875;28;20049;-68
2023/06/11 02:33:09;;;;;;;0.90;0.90;;;25.30;55.70;;;;;;5053879;28;20080;-68
2023/06/11 02:35:36;;;;;;;0.85;0.85;;;25.30;55.70;;;;;;5052582;28;20041;-68
2023/06/11 02:38:04;;;;;;;0.73;0.73;;;25.30;55.60;;;;;;5053393;28;20486;-68
2023/06/11 02:40:31;;;;;;;1.00;1.00;;;25.30;55.60;;;;;;5053810;28;20049;-68
2023/06/11 02:42:58;;;;;;;0.80;0.80;;;25.30;55.60;;;;;;5053459;28;20083;-68
2023/06/11 02:45:25;;;;;;;0.90;0.90;;;25.30;55.60;;;;;;5053482;28;20084;-68
2023/06/11 02:47:52;;;;;;;1.00;1.00;;;25.30;55.60;;;;;;5053572;28;20049;-68
2023/06/11 02:50:19;;;;;;;0.95;0.95;;;25.30;55.60;;;;;;5053340;28;20141;-68
2023/06/11 02:52:46;;;;;;;1.00;1.00;;;25.30;55.50;;;;;;5053534;28;20485;-68
2023/06/11 02:55:14;;;;;;;1.10;1.10;;;25.30;55.50;;;;;;5052789;28;20049;-68
2023/06/11 02:57:43;;;;;;;1.15;1.15;;;25.30;55.50;;;;;;5053388;28;20079;-68
2023/06/11 03:00:10;;;;;;;0.90;0.90;;;25.30;55.50;;;;;;5052995;28;20045;-68
2023/06/11 03:02:38;;;;;;;1.15;1.05;;;25.30;55.50;;;;;;5053458;28;20057;-68
2023/06/11 03:05:06;;;;;;;1.48;0.80;;;25.30;55.40;;;;;;5053597;28;20497;-68
2023/06/11 03:07:33;;;;;;;1.08;1.08;;;25.40;55.50;;;;;;5052325;28;20448;-68
2023/06/11 03:10:00;;;;;;;1.30;0.88;;;25.40;55.50;;;;;;5053413;28;20079;-68
2023/06/11 03:12:27;;;;;;;0.80;0.80;;;25.40;55.50;;;;;;5052648;28;20045;-68
2023/06/11 03:14:54;;;;;;;0.77;0.77;;;25.40;55.50;;;;;;5053123;28;20048;-69
2023/06/11 03:17:21;;;;;;;0.80;0.80;;;25.40;55.50;;;;;;5052993;28;20068;-68
2023/06/11 03:19:48;;;;;;;1.00;1.00;;;25.40;55.50;;;;;;5052379;28;20053;-68
2023/06/11 03:22:15;;;;;;;0.85;0.85;;;25.40;55.50;;;;;;5052146;28;20098;-68
2023/06/11 03:24:43;;;;;;;0.90;0.90;;;25.40;55.40;;;;;;5052952;28;20049;-68
2023/06/11 03:27:11;;;;;;;1.40;1.13;;;25.30;55.40;;;;;;5052934;28;20049;-68
2023/06/11 03:29:38;;;;;;;1.02;1.02;;;25.40;55.40;;;;;;5053113;28;20045;-68
2023/06/11 03:32:06;;;;;;;0.80;0.80;;;25.40;55.50;;;;;;5052491;28;20049;-68
2023/06/11 03:34:37;;;;;;;1.13;0.90;;;25.40;55.40;;;;;;5052813;28;20049;-68
2023/06/11 03:37:05;;;;;;;0.80;0.80;;;25.40;55.40;;;;;;5052860;28;20064;-68
2023/06/11 03:39:32;;;;;;;0.90;0.90;;;25.40;55.40;;;;;;5052713;28;20523;-68
2023/06/11 03:41:59;;;;;;;0.82;0.82;;;25.40;55.40;;;;;;5051366;28;20049;-68
2023/06/11 03:44:26;;;;;;;0.80;0.80;;;25.40;55.40;;;;;;5053186;28;20049;-68
2023/06/11 03:46:53;;;;;;;0.98;0.98;;;25.40;55.30;;;;;;5052650;28;20102;-68
2023/06/11 03:49:20;;;;;;;1.33;1.00;;;25.40;55.30;;;;;;5052193;28;20127;-68
2023/06/11 03:51:48;;;;;;;0.95;0.95;;;25.40;55.30;;;;;;5052621;28;20456;-68
2023/06/11 03:54:15;;;;;;;1.35;1.20;;;25.40;55.20;;;;;;5051285;28;20505;-68
2023/06/11 03:56:42;;;;;;;0.80;0.80;;;25.40;55.20;;;;;;5052340;28;20045;-68
2023/06/11 03:59:09;;;;;;;0.80;0.80;;;25.50;55.20;;;;;;5052798;28;20110;-68
2023/06/11 04:01:36;;;;;;;0.85;0.85;;;25.50;55.20;;;;;;5052618;28;20080;-68
2023/06/11 04:04:04;;;;;;;0.80;0.80;;;25.50;55.10;;;;;;5052720;28;20118;-68
2023/06/11 04:06:38;;;;;;;1.15;1.15;;;25.50;55.10;;;;;;5052190;28;20490;-68
2023/06/11 04:09:06;;;;;;;0.90;0.90;;;25.50;55.10;;;;;;5052587;28;20041;-68
2023/06/11 04:11:33;;;;;;;1.17;1.17;;;25.50;55.00;;;;;;5052399;28;20122;-68
2023/06/11 04:14:00;;;;;;;0.93;0.93;;;25.60;55.00;;;;;;5052629;28;20075;-68
2023/06/11 04:16:27;;;;;;;0.75;0.75;;;25.60;55.00;;;;;;5052439;28;20053;-68
2023/06/11 04:18:55;;;;;;;1.20;1.20;;;25.60;54.90;;;;;;5052162;28;20099;-68
2023/06/11 04:21:22;;;;;;;0.77;0.77;;;25.60;54.80;;;;;;5052436;28;20563;-68
2023/06/11 04:23:49;;;;;;;1.10;1.10;;;25.60;54.80;;;;;;5052198;28;20104;-68
2023/06/11 04:26:19;;;;;;;0.98;0.98;;;25.60;54.70;;;;;;5051938;28;20052;-68
2023/06/11 04:28:48;;;;;;;1.75;1.05;;;25.70;54.70;;;;;;5052610;28;20045;-68
2023/06/11 04:31:15;;;;;;;1.33;0.80;;;25.70;54.60;;;;;;5052265;28;20406;-68
2023/06/11 04:33:43;;;;;;;0.95;0.95;;;25.70;54.50;;;;;;5054739;28;20056;-68
2023/06/11 04:36:10;;;;;;;1.85;1.20;;;25.70;54.40;;;;;;5056292;28;20107;-69
2023/06/11 04:38:38;;;;;;;1.40;1.38;;;25.70;54.60;;;;;;5055501;28;20509;-68
2023/06/11 04:41:05;;;;;;;1.65;1.55;;;25.60;54.80;;;;;;5055722;28;20110;-68
2023/06/11 04:43:33;;;;;;;2.17;1.65;;;25.50;55.10;;;;;;5056158;28;20080;-68
2023/06/11 04:46:03;;;;;;;2.25;2.05;;;25.30;55.40;;;;;;5055604;28;20504;-68
2023/06/11 04:48:35;;;;;;;1.80;1.70;;;25.00;55.10;;;;;;5056008;28;20051;-68
2023/06/11 04:51:04;;;;;;;2.22;2.03;;;24.70;54.60;;;;;;5054388;28;20094;-68
2023/06/11 04:53:36;;;;;;;2.38;1.85;;;24.40;54.30;;;;;;5055595;28;20041;-68
2023/06/11 04:56:04;;;;;;;5.57;2.17;;;24.00;54.20;;;;;;5055730;28;20558;-68
2023/06/11 04:58:31;;;;;;;2.47;2.28;;;23.70;54.30;;;;;;5055460;28;20091;-68
2023/06/11 05:00:59;;;;;;;2.50;2.30;;;23.30;54.50;;;;;;5054247;28;20394;-68
2023/06/11 05:03:29;;;;;;;2.50;2.30;;;23.00;54.60;;;;;;5054602;28;20120;-68
2023/06/11 05:05:56;;;;;;;2.95;2.75;;;22.70;55.20;;;;;;5055092;28;20053;-68
2023/06/11 05:08:25;;;;;;;2.70;2.45;;;22.40;55.50;;;;;;5054574;28;20049;-68
2023/06/11 05:10:52;;;;;;;2.97;2.75;;;22.20;56.40;;;;;;5055635;28;20052;-68
2023/06/11 05:13:24;;;;;;;2.72;2.53;;;22.00;57.20;;;;;;5055508;28;20099;-68
2023/06/11 05:15:55;;;;;;;3.20;2.85;;;21.80;57.20;;;;;;5055209;28;20044;-68
2023/06/11 05:18:25;;;;;;;3.42;3.00;;;21.70;57.70;;;;;;5055264;28;20041;-68
2023/06/11 05:20:53;;;;;;;3.40;3.10;;;21.60;58.20;;;;;;5055505;28;20049;-68
2023/06/11 05:23:28;;;;;;;2.78;2.42;;;21.50;58.30;;;;;;5054368;28;20045;-68
2023/06/11 05:26:00;;;;;;;3.15;2.85;;;21.40;58.40;;;;;;5054658;28;20107;-68
2023/06/11 05:28:28;;;;;;;3.60;3.30;;;21.30;58.80;;;;;;5054958;28;20515;-68
2023/06/11 05:30:55;;;;;;;4.03;3.63;;;21.30;59.10;;;;;;5054973;28;20048;-68
2023/06/11 05:33:22;;;;;;;5.57;3.60;;;21.20;59.00;;;;;;5054057;28;20063;-68
2023/06/11 05:35:51;;;;;;;3.67;3.30;;;21.10;59.30;;;;;;5054910;28;20045;-68
2023/06/11 05:38:19;;;;;;;4.32;3.90;;;21.00;59.50;;;;;;5054705;28;20114;-69
2023/06/11 05:40:46;;;;;;;3.50;3.20;;;21.00;59.80;;;;;;5054524;28;20080;-68
2023/06/11 05:43:13;;;;;;;3.35;3.05;;;21.00;59.90;;;;;;5054323;28;20049;-68
2023/06/11 05:45:51;;;;;;;4.05;3.63;;;20.90;59.80;;;;;;5052709;28;20056;-68
2023/06/11 05:48:18;;;;;;;4.32;3.92;;;20.80;59.80;;;;;;5054886;28;20045;-69
2023/06/11 05:50:45;;;;;;;3.53;3.20;;;20.80;60.20;;;;;;5054240;28;20053;-68
2023/06/11 05:53:13;;;;;;;4.13;3.75;;;20.80;60.00;;;;;;5055082;28;20045;-68
2023/06/11 05:55:40;;;;;;;4.53;3.88;;;20.70;60.20;;;;;;5054854;28;20084;-68
2023/06/11 05:58:07;;;;;;;4.28;3.45;;;20.70;60.00;;;;;;5054447;28;20098;-68
2023/06/11 06:00:35;;;;;;;3.95;3.65;;;20.70;60.20;;;;;;5054348;28;20555;-68
2023/06/11 06:03:03;;;;;;;3.88;3.58;;;20.60;60.20;;;;;;5054419;28;20076;-68
2023/06/11 06:05:31;;;;;;;4.07;3.50;;;20.60;60.10;;;;;;5054218;28;20493;-68
2023/06/11 06:07:58;;;;;;;3.95;3.55;;;20.50;60.10;;;;;;5054465;28;20059;-68
2023/06/11 06:10:26;;;;;;;4.85;4.03;;;20.50;60.50;;;;;;5053134;28;20041;-68
2023/06/11 06:12:53;;;;;;;4.68;4.18;;;20.50;60.50;;;;;;5054507;28;20425;-68
2023/06/11 06:15:20;;;;;;;4.43;4.03;;;20.40;60.10;;;;;;5054196;28;20049;-68
2023/06/11 06:17:47;;;;;;;4.65;4.20;;;20.40;60.60;;;;;;5054056;28;20057;-67
2023/06/11 06:20:14;;;;;;;4.55;4.15;;;20.40;60.40;;;;;;5052462;28;20083;-67
2023/06/11 06:22:42;;;;;;;4.38;3.97;;;20.30;60.40;;;;;;5054182;28;20048;-67
2023/06/11 06:25:09;;;;;;;3.80;3.45;;;20.30;60.40;;;;;;5054275;28;20417;-67
2023/06/11 06:27:37;;;;;;;4.43;4.03;;;20.20;60.80;;;;;;5053891;28;20053;-67
2023/06/11 06:30:05;;;;;;;4.93;3.83;;;20.20;60.60;;;;;;5053656;28;20041;-67
2023/06/11 06:32:33;;;;;;;6.38;4.85;;;20.10;60.80;;;;;;5053865;28;20102;-68
2023/06/11 06:35:00;;;;;;;6.03;4.43;;;20.00;60.70;;;;;;5053483;28;20448;-67
2023/06/11 06:37:27;;;;;;;5.45;4.40;;;19.90;61.40;;;;;;5054150;28;20079;-68
2023/06/11 06:39:55;;;;;;;4.00;3.67;;;19.90;60.70;;;;;;5053554;28;20048;-68
2023/06/11 06:42:22;;;;;;;5.43;4.63;;;19.80;60.80;;;;;;5053993;28;20049;-67
2023/06/11 06:44:49;;;;;;;6.57;4.32;;;19.80;61.50;;;;;;5053703;28;20052;-68
2023/06/11 06:47:16;;;;;;;4.78;4.20;;;19.70;61.00;;;;;;5053875;28;20126;-67
2023/06/11 06:49:43;;;;;;;5.38;4.55;;;19.60;60.50;;;;;;5052258;28;20132;-68
2023/06/11 06:52:11;;;;;;;6.20;5.10;;;19.60;61.50;;;;;;5053206;28;20048;-68
2023/06/11 06:54:39;;;;;;;5.07;4.57;;;19.60;61.60;;;;;;5053469;28;20049;-68
2023/06/11 06:57:10;;;;;;;5.90;5.03;;;19.50;61.00;;;;;;5053361;28;20638;-68
2023/06/11 06:59:37;;;;;;;5.32;4.82;;;19.40;61.30;;;;;;5053216;28;20048;-68
2023/06/11 07:02:05;;;;;;;5.38;4.88;;;19.30;62.10;;;;;;5053293;28;20053;-67
2023/06/11 07:04:36;;;;;;;5.32;4.63;;;19.30;61.30;;;;;;5053375;28;20049;-68
2023/06/11 07:07:03;;;;;;;5.97;5.13;;;19.20;61.30;;;;;;5053454;28;20440;-68
2023/06/11 07:09:30;;;;;;;5.00;4.50;;;19.20;62.20;;;;;;5052692;28;20551;-68
2023/06/11 07:11:57;;;;;;;8.60;4.75;;;19.20;62.20;;;;;;5052767;28;20128;-67
2023/06/11 07:14:25;;;;;;;5.70;5.10;;;19.10;61.30;;;;;;5053204;28;20072;-67
2023/06/11 07:16:52;;;;;;;5.38;4.88;;;19.10;61.70;;;;;;5052823;28;20045;-67
2023/06/11 07:19:19;;;;;;;4.90;4.40;;;19.10;62.40;;;;;;5052689;28;20049;-67
2023/06/11 07:21:46;;;;;;;5.70;4.80;;;19.10;61.70;;;;;;5051884;28;20077;-67
2023/06/11 07:24:13;;;;;;;5.95;5.45;;;19.00;61.40;;;;;;5052958;28;20083;-67
2023/06/11 07:26:42;;;;;;;5.63;5.10;;;19.00;62.80;;;;;;5052584;28;20052;-68
2023/06/11 07:29:09;;;;;;;5.75;4.70;;;19.00;62.00;;;;;;5053412;28;20098;-67
2023/06/11 07:31:38;;;;;;;5.15;4.57;;;19.00;61.60;;;;;;5052342;28;20050;-68
2023/06/11 07:34:06;;;;;;;6.57;5.85;;;19.00;62.20;;;;;;5053289;28;20481;-67
2023/06/11 07:36:33;;;;;;;9.32;5.65;;;19.00;62.50;;;;;;5052262;28;20049;-67
2023/06/11 07:39:01;;;;;;;5.97;4.85;;;19.00;62.30;;;;;;5052946;28;20048;-67
2023/06/11 07:41:28;;;;;;;5.68;5.10;;;19.00;62.20;;;;;;5052794;28;20119;-67
2023/06/11 07:43:55;;;;;;;5.60;5.10;;;19.00;62.20;;;;;;5052872;28;20044;-67
2023/06/11 07:46:22;;;;;;;5.55;4.88;;;19.00;61.70;;;;;;5052866;28;20053;-67
2023/06/11 07:48:49;;;;;;;5.15;4.60;;;19.00;61.90;;;;;;5052833;28;20481;-67
2023/06/11 07:51:20;;;;;;;5.18;4.68;;;19.00;62.80;;;;;;5053312;28;20052;-67
2023/06/11 07:53:47;;;;;;;6.25;5.38;;;19.00;63.00;;;;;;5053137;28;20448;-68
2023/06/11 07:56:14;;;;;;;6.43;5.40;;;19.00;62.50;;;;;;5052465;28;20044;-67
2023/06/11 07:58:44;;;;;;;8.30;5.75;;;19.00;61.70;;;;;;5052403;28;20048;-67
2023/06/11 08:01:12;;;;;;;5.47;4.95;;;19.00;62.60;;;;;;5052461;28;20551;-67
2023/06/11 08:03:40;;;;;;;6.20;4.88;;;19.00;62.70;;;;;;5051524;28;20045;-67
2023/06/11 08:06:07;;;;;;;5.90;5.00;;;19.10;62.30;;;;;;5051599;28;20048;-67
2023/06/11 08:08:35;;;;;;;5.40;4.90;;;19.00;62.50;;;;;;5056443;28;20447;-67
2023/06/11 08:11:02;;;;;;;5.70;5.10;;;19.10;62.90;;;;;;5056255;28;20485;-67
2023/06/11 08:13:29;;;;;;;5.68;5.05;;;19.10;62.80;;;;;;5056723;28;20501;-67
2023/06/11 08:15:56;;;;;;;5.85;5.20;;;19.20;62.10;;;;;;5056347;28;20106;-67
2023/06/11 08:18:24;;;;;;;5.68;5.15;;;19.20;61.80;;;;;;5056684;28;20413;-67
2023/06/11 08:20:52;;;;;;;5.22;4.72;;;19.20;62.10;;;;;;5055990;28;20108;-67
2023/06/11 08:23:19;;;;;;;6.72;5.05;;;19.20;61.80;;;;;;5056719;28;20123;-67
2023/06/11 08:25:46;;;;;;;5.75;5.00;;;19.20;62.10;;;;;;5052356;28;20123;-68
2023/06/11 08:28:13;;;;;;;5.65;5.05;;;19.20;61.50;;;;;;5049663;28;20049;-67
2023/06/11 08:30:41;;;;;;;5.97;5.07;;;19.20;61.70;;;;;;5055980;28;20041;-67
2023/06/11 08:33:09;;;;;;;5.53;5.03;;;19.20;61.90;;;;;;5054823;28;20155;-67
2023/06/11 08:35:36;;;;;;;6.22;5.63;;;19.30;61.80;;;;;;5055955;28;20048;-67
2023/06/11 08:38:03;;;;;;;6.05;5.45;;;19.30;61.40;;;;;;5056079;28;20052;-67
2023/06/11 08:40:32;;;;;;;6.30;5.50;;;19.30;61.30;;;;;;5055975;28;20466;-67
2023/06/11 08:42:59;;;;;;;5.88;5.13;;;19.30;61.30;;;;;;5056013;28;20045;-67
2023/06/11 08:45:26;;;;;;;10.27;5.05;;;19.40;61.40;;;;;;5056149;28;20103;-67
2023/06/11 08:47:56;;;;;;;7.18;5.55;;;19.40;61.20;;;;;;5055854;28;20127;-69
2023/06/11 08:50:24;;;;;;;5.97;5.38;;;19.40;60.80;;;;;;5055986;28;20120;-68
2023/06/11 08:52:52;;;;;;;5.70;5.18;;;19.40;61.10;;;;;;5055719;28;20497;-68
2023/06/11 08:55:19;;;;;;;5.15;4.68;;;19.40;61.30;;;;;;5055910;28;20073;-68
2023/06/11 08:57:46;;;;;;;5.30;4.80;;;19.40;60.50;;;;;;5055541;28;20049;-68
2023/06/11 09:00:14;;;;;;;5.47;4.95;;;19.30;61.20;;;;;;5054121;28;20106;-68
2023/06/11 09:02:41;;;;;;;6.32;5.20;;;19.40;61.50;;;;;;5055856;28;20041;-68
2023/06/11 09:05:10;;;;;;;5.40;4.90;;;19.40;60.50;;;;;;5055045;28;20049;-68
2023/06/11 09:07:46;;;;;;;5.78;5.07;;;19.40;60.60;;;;;;5055854;28;20080;-68
2023/06/11 09:10:14;;;;;;;5.43;4.93;;;19.40;61.60;;;;;;5055775;28;20048;-68
2023/06/11 09:12:41;;;;;;;5.78;5.07;;;19.50;60.90;;;;;;5055810;28;20072;-68
2023/06/11 09:15:09;;;;;;;5.88;5.28;;;19.50;60.90;;;;;;5055727;28;20075;-68
2023/06/11 09:17:38;;;;;;;5.60;5.10;;;19.50;61.50;;;;;;5055141;28;20459;-69
2023/06/11 09:20:08;;;;;;;5.45;4.95;;;19.50;62.00;;;;;;5052801;28;20490;-68
2023/06/11 09:22:37;;;;;;;;;;;19.50;60.60;;;;;;5055417;28;20098;-68
2023/06/11 09:25:19;;;;;;;5.93;5.15;;;19.60;60.90;;;;;;5055003;28;19947;-69
2023/06/11 09:27:47;;;;;;;7.07;5.15;;;19.60;61.70;;;;;;5055499;28;20106;-68
2023/06/11 09:30:19;;;;;;;6.18;5.20;;;19.60;60.60;;;;;;5055383;28;20045;-68
2023/06/11 09:32:49;;;;;;;6.85;5.18;;;19.60;60.60;;;;;;5055452;28;20051;-68
2023/06/11 09:35:17;;;;;;;5.90;5.30;;;19.50;61.50;;;;;;5054868;28;20056;-68
2023/06/11 09:37:50;;;;;;;5.82;5.22;;;19.60;60.90;;;;;;5055034;28;20052;-68
2023/06/11 09:40:20;;;;;;;5.40;4.90;;;19.50;60.50;;;;;;5054647;28;20045;-69
2023/06/11 09:42:48;;;;;;;5.68;5.18;;;19.60;61.20;;;;;;5055383;28;20420;-68
2023/06/11 09:45:20;;;;;;;6.13;5.63;;;19.60;61.20;;;;;;5054860;28;20045;-69
2023/06/11 09:47:50;;;;;;;6.85;5.78;;;19.60;60.60;;;;;;5055026;28;20048;-68
2023/06/11 09:50:19;;;;;;;;;;;19.60;60.30;;;;;;5055367;28;20056;-69
2023/06/11 09:52:48;;;;;;;5.88;5.22;;;19.70;61.90;;;;;;5054804;28;19924;-68
2023/06/11 09:55:15;;;;;;;5.93;5.28;;;19.70;61.20;;;;;;5054008;28;20061;-69
2023/06/11 09:57:43;;;;;;;5.47;4.97;;;19.80;60.70;;;;;;5054636;28;20478;-68
2023/06/11 10:00:12;;;;;;;5.53;5.00;;;19.80;60.70;;;;;;5053390;28;20053;-69
2023/06/11 10:02:41;;;;;;;5.85;5.32;;;19.80;61.30;;;;;;5054571;28;20084;-69
2023/06/11 10:05:11;;;;;;;5.60;5.10;;;19.80;61.30;;;;;;5054874;28;20052;-69
2023/06/11 10:07:56;;;;;;;5.30;4.78;;;19.80;61.20;;;;;;5036939;28;20073;-69
2023/06/11 10:10:26;;;;;;;5.53;4.93;;;19.90;61.30;;;;;;5053826;28;20053;-69
2023/06/11 10:12:54;;;;;;;5.57;4.95;;;19.90;60.70;;;;;;5054572;28;20444;-69
2023/06/11 10:15:25;;;;;;;6.10;5.32;;;20.00;60.50;;;;;;5054168;28;20107;-69
2023/06/11 10:17:54;;;;;;;5.05;4.55;;;20.00;61.70;;;;;;5054440;28;20048;-68
2023/06/11 10:20:28;;;;;;;5.38;4.88;;;20.00;61.90;;;;;;5053989;28;20059;-68
2023/06/11 10:23:09;;;;;;;7.10;5.43;;;20.10;61.10;;;;;;5054427;28;20242;-68
2023/06/11 10:25:38;;;;;;;6.45;4.50;;;20.10;60.00;;;;;;5052660;28;20099;-68
2023/06/11 10:28:07;;;;;;;6.18;4.50;;;20.20;60.60;;;;;;5053718;28;20561;-69
2023/06/11 10:30:35;;;;;;;5.22;4.72;;;20.20;60.60;;;;;;5053245;28;20049;-68
2023/06/11 10:33:02;;;;;;;5.32;4.75;;;20.20;60.10;;;;;;5054269;28;20053;-68
2023/06/11 10:35:36;;;;;;;6.10;5.05;;;20.20;60.20;;;;;;5053727;28;20485;-68
2023/06/11 10:38:12;;;;;;;5.88;5.30;;;20.30;60.00;;;;;;5052646;28;20135;-68
2023/06/11 10:40:40;;;;;;;5.90;4.78;;;20.30;59.70;;;;;;5053824;28;20072;-68
2023/06/11 10:43:17;;;;;;;7.20;5.57;;;20.20;60.40;;;;;;5054253;28;20052;-69
2023/06/11 10:45:44;;;;;;;5.95;4.95;;;20.20;60.90;;;;;;5053568;28;20041;-68
2023/06/11 10:48:27;;;;;;;5.40;4.90;;;20.20;60.60;;;;;;5053625;28;20088;-68
2023/06/11 10:51:02;;;;;;;5.97;5.38;;;20.20;60.10;;;;;;5053720;28;20045;-68
2023/06/11 10:53:37;;;;;;;5.55;4.97;;;20.30;60.80;;;;;;5053602;28;20436;-68
2023/06/11 10:56:07;;;;;;;4.50;4.10;;;20.20;60.60;;;;;;5053634;28;20401;-68
2023/06/11 10:58:36;;;;;;;5.57;5.07;;;20.30;59.80;;;;;;5053442;28;20053;-68
2023/06/11 11:01:06;;;;;;;5.70;5.20;;;20.20;60.00;;;;;;5053261;28;20128;-68
2023/06/11 11:03:34;;;;;;;6.90;5.03;;;20.20;60.70;;;;;;5052301;28;20045;-68
2023/06/11 11:06:03;;;;;;;5.53;4.63;;;20.20;60.40;;;;;;5053208;28;20127;-68
2023/06/11 11:08:31;;;;;;;6.03;4.53;;;20.10;60.20;;;;;;5053539;28;20454;-68
2023/06/11 11:10:59;;;;;;;6.18;5.40;;;20.10;60.70;;;;;;5052937;28;20045;-68
2023/06/11 11:13:28;;;;;;;5.85;5.25;;;20.10;61.00;;;;;;5053055;28;20094;-68
2023/06/11 11:15:58;;;;;;;5.97;5.38;;;20.00;60.80;;;;;;5053234;28;20401;-68
2023/06/11 11:18:25;;;;;;;6.25;4.97;;;20.00;61.40;;;;;;5053261;28;20045;-68
2023/06/11 11:20:54;;;;;;;5.63;4.97;;;20.00;61.70;;;;;;5053124;28;20102;-68
2023/06/11 11:23:24;;;;;;;5.63;5.13;;;20.00;60.80;;;;;;5053219;28;20053;-68
2023/06/11 11:25:52;;;;;;;5.47;5.00;;;20.00;61.10;;;;;;5052930;28;20053;-68
2023/06/11 11:28:19;;;;;;;5.72;5.13;;;20.00;61.20;;;;;;5053262;28;20067;-68
2023/06/11 11:30:46;;;;;;;5.32;4.80;;;19.90;61.10;;;;;;5053067;28;20045;-68
2023/06/11 11:33:13;;;;;;;6.10;5.60;;;19.80;61.10;;;;;;5052910;28;20057;-69
2023/06/11 11:35:49;;;;;;;5.43;4.93;;;19.80;61.40;;;;;;5052737;28;20075;-68
2023/06/11 11:38:17;;;;;;;5.63;5.00;;;19.70;62.30;;;;;;5051735;28;20045;-68
2023/06/11 11:40:44;;;;;;;6.63;5.28;;;19.70;62.90;;;;;;5052805;28;20045;-68
2023/06/11 11:43:15;;;;;;;5.15;4.65;;;19.70;61.60;;;;;;5052602;28;20471;-68
2023/06/11 11:45:48;;;;;;;6.03;5.35;;;19.70;61.70;;;;;;5053062;28;20041;-68
2023/06/11 11:48:16;;;;;;;6.13;5.55;;;19.70;62.80;;;;;;5053067;28;20136;-68
2023/06/11 11:50:45;;;;;;;6.75;5.53;;;19.70;62.10;;;;;;5052614;28;20095;-68
2023/06/11 11:53:15;;;;;;;5.55;5.05;;;19.60;61.10;;;;;;5053217;28;20444;-68
2023/06/11 11:55:44;;;;;;;6.25;5.32;;;19.60;62.70;;;;;;5052983;28;20107;-68
2023/06/11 11:58:39;;;;;;;6.25;5.10;;;19.60;62.30;;;;;;5053038;28;20049;-68
2023/06/11 12:01:10;;;;;;;5.68;4.85;;;19.50;61.50;;;;;;5052613;28;20509;-68
2023/06/11 12:03:37;;;;;;;7.00;5.18;;;19.50;62.50;;;;;;5052888;28;20049;-67
2023/06/11 12:06:08;;;;;;;5.63;5.13;;;19.50;62.50;;;;;;5052447;28;20084;-67
2023/06/11 12:08:36;;;;;;;5.55;5.05;;;19.50;61.20;;;;;;5052534;28;20131;-68
2023/06/11 12:11:07;;;;;;;8.27;4.82;;;19.40;62.10;;;;;;5052585;28;20052;-68
2023/06/11 12:13:34;;;;;;;5.57;5.03;;;19.40;62.80;;;;;;5052905;28;20495;-68
2023/06/11 12:16:02;;;;;;;5.32;4.82;;;19.40;62.00;;;;;;5052197;28;20049;-68
2023/06/11 12:18:32;;;;;;;5.75;5.15;;;19.40;61.60;;;;;;5052555;28;20140;-68
2023/06/11 12:20:59;;;;;;;5.88;5.28;;;19.40;62.80;;;;;;5052553;28;20084;-68
2023/06/11 12:23:26;;;;;;;6.40;5.43;;;19.40;62.20;;;;;;5052376;28;20053;-68
2023/06/11 12:25:54;;;;;;;6.70;5.97;;;19.40;61.30;;;;;;5051291;28;20045;-68
2023/06/11 12:28:21;;;;;;;7.45;5.30;;;19.30;63.20;;;;;;5052410;28;20283;-68
2023/06/11 12:30:48;;;;;;;5.90;5.22;;;19.30;62.60;;;;;;5051404;28;20048;-68
2023/06/11 12:33:16;;;;;;;6.28;5.38;;;19.20;62.20;;;;;;5052263;28;20045;-68
2023/06/11 12:35:43;;;;;;;6.43;5.35;;;19.20;63.70;;;;;;5052164;28;20075;-68
2023/06/11 12:38:14;;;;;;;6.18;5.57;;;19.20;63.40;;;;;;5052731;28;20057;-68
2023/06/11 12:40:41;;;;;;;9.77;5.82;;;19.20;62.70;;;;;;5051828;28;20452;-68
2023/06/11 12:43:08;;;;;;;7.00;5.40;;;19.20;62.70;;;;;;5051609;28;20098;-68
2023/06/11 12:45:37;;;;;;;7.28;5.53;;;19.20;64.30;;;;;;5051877;28;20439;-68
2023/06/11 12:48:05;;;;;;;5.50;5.00;;;19.20;63.80;;;;;;5052020;28;20056;-68
2023/06/11 12:50:32;;;;;;;9.27;5.28;;;19.20;62.00;;;;;;5052451;28;20088;-68
2023/06/11 12:53:00;;;;;;;5.75;4.85;;;19.20;63.40;;;;;;5053334;28;20045;-68
2023/06/11 12:55:27;;;;;;;6.13;4.88;;;19.20;63.90;;;;;;5055603;28;20041;-68